This is the latest recevied weather packets stored in our database for station/object E24CR-1. If no packets are shown the sender has not sent any weather packets the latest 10 day(s).
| Time | Temp. | Humidity | Pressure | Rain* | Wind** | Luminosity | Snow |
|---|---|---|---|---|---|---|---|
| 1777424529 | 26.11° C | 68% | 952 hPa | - | - | 0 W/m² | - |
| 1777423905 | 25.56° C | 70% | 952 hPa | - | - | 0 W/m² | - |
| 1777423279 | 25° C | 70% | 952 hPa | - | - | 0 W/m² | - |
| 1777422653 | 25.56° C | 67% | 952 hPa | - | - | 0 W/m² | - |
| 1777422028 | 24.44° C | 70% | 952 hPa | - | - | 0 W/m² | - |
| 1777421402 | 26.11° C | 63% | 952 hPa | - | - | 0 W/m² | - |
| 1777420774 | 26.11° C | 67% | 952 hPa | - | - | 0 W/m² | - |
| 1777420144 | 25.56° C | 68% | 951 hPa | - | - | 0 W/m² | - |
| 1777419518 | 24.44° C | 68% | 951 hPa | - | - | 0 W/m² | - |
| 1777418893 | 23.89° C | 73% | 951 hPa | - | - | 0 W/m² | - |
| 1777418268 | 24.44° C | 68% | 951 hPa | - | - | 0 W/m² | - |
| 1777417642 | 23.89° C | 69% | 951 hPa | - | - | 0 W/m² | - |
| 1777417017 | 23.89° C | 68% | 951 hPa | - | - | 0 W/m² | - |
| 1777416392 | 24.44° C | 68% | 951 hPa | - | - | 0 W/m² | - |
| 1777415767 | 24.44° C | 67% | 951 hPa | - | - | 0 W/m² | - |
| 1777415142 | 23.89° C | 69% | 951 hPa | - | - | 0 W/m² | - |
| 1777414516 | 24.44° C | 68% | 950 hPa | - | - | 0 W/m² | - |
| 1777413890 | 24.44° C | 68% | 950 hPa | - | - | 0 W/m² | - |
| 1777413265 | 23.89° C | 68% | 950 hPa | - | - | 0 W/m² | - |
| 1777412640 | 23.89° C | 70% | 950 hPa | - | - | 0 W/m² | - |
| 1777412014 | 23.89° C | 69% | 950 hPa | - | - | 0 W/m² | - |
| 1777411389 | 23.89° C | 67% | 950 hPa | - | - | 0 W/m² | - |
| 1777410764 | 24.44° C | 67% | 950 hPa | - | - | 0 W/m² | - |
| 1777410139 | 24.44° C | 65% | 950 hPa | - | - | 0 W/m² | - |
| 1777409514 | 25° C | 63% | 950 hPa | - | - | 0 W/m² | - |
* Rain since midnight (hover to see other rain measurements)
** Current wind speed in m/s (hover to see current wind gust speed)